This is the latest recevied weather packets stored in our database for station/object EA3HRE-13. If no packets are shown the sender has not sent any weather packets the latest 10 day(s).
| Time | Temp. | Humidity | Pressure | Rain* | Wind** | Luminosity | Snow |
|---|---|---|---|---|---|---|---|
| 1777673656 | 17.78° C | 100% | 1024.1 hPa | 0 mm | - | - | - |
| 1777673056 | 17.78° C | 100% | 1024.1 hPa | 0 mm | - | - | - |
| 1777672456 | 17.78° C | 100% | 1024.1 hPa | 0 mm | - | - | - |
| 1777671856 | 17.78° C | 100% | 1024.1 hPa | 0 mm | - | - | - |
| 1777671226 | 17.22° C | 100% | 1024 hPa | 0 mm | - | - | - |
| 1777670625 | 17.22° C | 100% | 1024 hPa | 0 mm | - | - | - |
| 1777670025 | 17.78° C | 100% | 1024 hPa | 0 mm | - | - | - |
| 1777669395 | 17.78° C | 100% | 1023.9 hPa | 0 mm | - | - | - |
| 1777668765 | 17.78° C | 100% | 1024 hPa | 0 mm | - | - | - |
| 1777668165 | 17.78° C | 100% | 1023.9 hPa | 0 mm | - | - | - |
| 1777667575 | 17.78° C | 100% | 1023.9 hPa | 0 mm | - | - | - |
| 1777666965 | 17.78° C | 100% | 1024.1 hPa | 0 mm | - | - | - |
| 1777666365 | 17.78° C | 100% | 1023.8 hPa | 0 mm | - | - | - |
| 1777665765 | 18.33° C | 100% | 1023.8 hPa | 0 mm | - | - | - |
| 1777659021 | 20° C | 100% | 1022.9 hPa | 0 mm | - | - | - |
| 1777658421 | 20.56° C | 100% | 1022.7 hPa | 0 mm | - | - | - |
| 1777657821 | 20.56° C | 100% | 1022.7 hPa | 0 mm | - | - | - |
| 1777657221 | 20° C | 100% | 1022.5 hPa | 0 mm | - | - | - |
| 1777656621 | 20.56° C | 100% | 1022.2 hPa | 0 mm | - | - | - |
| 1777656021 | 20.56° C | 100% | 1022.2 hPa | 0 mm | - | - | - |
| 1777655421 | 21.11° C | 100% | 1022.1 hPa | 0 mm | - | - | - |
| 1777654821 | 21.67° C | 100% | 1022.1 hPa | 0 mm | - | - | - |
| 1777654221 | 22.22° C | 100% | 1022 hPa | 0 mm | - | - | - |
| 1777653620 | 22.22° C | 100% | 1022 hPa | 0 mm | - | - | - |
| 1777652990 | 22.22° C | 100% | 1021.9 hPa | 0 mm | - | - | - |
* Rain latest hour (hover to see other rain measurements)
** Current wind speed in m/s (hover to see current wind gust speed)